createdAt,value
2023-04-20T00:03:23.109Z,4.03
2023-04-20T00:08:26.006Z,4.57
2023-04-20T00:13:28.727Z,4.55
2023-04-20T00:23:35.413Z,3.83
2023-04-20T00:28:38.135Z,4.15
2023-04-20T00:33:44.859Z,4.32
2023-04-20T00:38:47.655Z,4.55
2023-04-20T00:43:51.939Z,5.03
2023-04-20T00:48:57.400Z,4.40
2023-04-20T00:54:01.167Z,5.18
2023-04-20T00:59:03.932Z,4.78
2023-04-20T01:04:08.642Z,4.63
2023-04-20T01:09:12.460Z,4.97
2023-04-20T01:14:15.262Z,5.05
2023-04-20T01:19:19.664Z,4.90
2023-04-20T01:24:23.913Z,5.07
2023-04-20T01:29:27.420Z,4.38
2023-04-20T01:34:30.338Z,4.53
2023-04-20T01:39:34.884Z,4.15
2023-04-20T01:44:37.764Z,4.10
2023-04-20T01:49:40.815Z,4.63
2023-04-20T01:54:45.016Z,4.32
2023-04-20T01:59:47.704Z,4.28
2023-04-20T02:09:54.688Z,3.85
2023-04-20T02:14:57.489Z,4.80
2023-04-20T02:20:00.384Z,4.40
2023-04-20T02:25:05.899Z,4.72
2023-04-20T02:30:10.422Z,4.38
2023-04-20T02:35:13.432Z,4.88
2023-04-20T02:40:19.536Z,4.93
2023-04-20T02:45:22.303Z,4.90
2023-04-20T02:50:25.498Z,5.32
2023-04-20T03:01:00.314Z,5.28
2023-04-20T03:06:03.307Z,4.70
2023-04-20T03:11:07.835Z,4.70
2023-04-20T03:16:11.821Z,4.95
2023-04-20T03:21:21.700Z,5.13
2023-04-20T03:26:26.062Z,4.50
2023-04-20T03:31:41.425Z,5.25
2023-04-20T03:36:46.850Z,5.68
2023-04-20T03:41:51.199Z,4.57
2023-04-20T03:46:54.041Z,4.82
2023-04-20T03:51:56.853Z,4.80
2023-04-20T03:57:02.158Z,4.88
2023-04-20T04:02:05.919Z,4.82
2023-04-20T04:07:08.961Z,4.60
2023-04-20T04:12:15.773Z,4.75
2023-04-20T04:17:18.934Z,5.53
2023-04-20T04:22:21.764Z,5.75
2023-04-20T04:27:46.465Z,5.78
2023-04-20T04:32:50.549Z,6.00
2023-04-20T04:37:54.210Z,6.50
2023-04-20T04:43:00.350Z,6.78
2023-04-20T04:48:03.686Z,7.30
2023-04-20T04:53:06.958Z,7.55
2023-04-20T04:58:11.381Z,8.38
2023-04-20T05:03:14.305Z,9.43
2023-04-20T05:08:17.245Z,8.25
2023-04-20T05:13:22.630Z,8.55
2023-04-20T05:18:25.458Z,8.40
2023-04-20T05:23:28.240Z,8.73
2023-04-20T05:28:34.304Z,9.15
2023-04-20T05:33:36.998Z,9.65
2023-04-20T05:38:40.199Z,8.55
2023-04-20T05:43:44.372Z,8.85
2023-04-20T05:48:47.273Z,8.75
2023-04-20T05:53:50.097Z,9.23
2023-04-20T05:58:54.985Z,9.45
2023-04-20T06:03:57.940Z,8.05
2023-04-20T06:09:00.969Z,10.35
2023-04-20T06:14:05.326Z,10.73
2023-04-20T06:19:08.112Z,10.23
2023-04-20T06:24:10.933Z,10.55
2023-04-20T06:29:15.180Z,9.88
2023-04-20T06:34:18.021Z,10.18
2023-04-20T06:39:20.946Z,10.52
2023-04-20T06:44:25.193Z,10.00
2023-04-20T06:49:27.954Z,10.25
2023-04-20T06:54:30.819Z,9.93
2023-04-20T06:59:35.021Z,10.88
2023-04-20T07:04:37.978Z,10.25
2023-04-20T07:09:40.799Z,9.93
2023-04-20T07:14:45.097Z,10.40
2023-04-20T07:19:47.892Z,9.10
2023-04-20T07:24:51.474Z,10.48
2023-04-20T07:29:55.772Z,10.45
2023-04-20T07:34:58.600Z,10.40
2023-04-20T07:40:02.009Z,10.50
2023-04-20T07:45:07.490Z,9.82
2023-04-20T07:50:11.144Z,10.13
2023-04-20T07:55:14.434Z,9.93
2023-04-20T08:00:19.903Z,9.57
2023-04-20T08:05:24.534Z,8.80
2023-04-20T08:10:27.449Z,9.60
2023-04-20T08:15:32.185Z,8.57
2023-04-20T08:20:35.293Z,9.05
2023-04-20T08:25:39.954Z,9.05
2023-04-20T08:30:45.470Z,8.73
2023-04-20T08:35:48.289Z,8.48
2023-04-20T08:40:51.204Z,8.27
2023-04-20T08:45:59.288Z,6.55
2023-04-20T08:51:03.337Z,7.35
2023-04-20T08:56:06.937Z,6.72
2023-04-20T09:01:12.827Z,7.32
2023-04-20T09:06:21.549Z,7.38
2023-04-20T09:11:28.084Z,6.70
2023-04-20T09:16:32.483Z,6.70
2023-04-20T09:21:35.901Z,6.20
2023-04-20T09:26:38.767Z,6.35
2023-04-20T09:31:43.071Z,6.10
2023-04-20T09:36:50.212Z,6.13
2023-04-20T09:41:53.666Z,6.32
2023-04-20T09:46:58.088Z,6.38
2023-04-20T09:52:03.335Z,6.28
2023-04-20T09:57:07.043Z,6.15
2023-04-20T10:02:12.547Z,6.15
2023-04-20T10:07:25.123Z,5.82
2023-04-20T10:12:27.946Z,5.95
2023-04-20T10:17:34.233Z,6.07
2023-04-20T10:22:37.305Z,5.35
2023-04-20T10:27:40.281Z,5.90
2023-04-20T10:32:44.493Z,5.57
2023-04-20T10:37:52.153Z,6.45
2023-04-20T10:42:55.191Z,7.10
2023-04-20T10:47:59.411Z,5.80
2023-04-20T10:53:02.412Z,6.00
2023-04-20T10:58:05.220Z,6.15
2023-04-20T11:03:13.029Z,6.60
2023-04-20T11:08:15.919Z,6.93
2023-04-20T11:13:25.390Z,6.50
2023-04-20T11:18:30.673Z,6.95
2023-04-20T11:23:39.259Z,6.57
2023-04-20T11:28:54.351Z,6.45
2023-04-20T11:33:59.607Z,7.05
2023-04-20T11:39:09.176Z,6.80
2023-04-20T11:44:12.258Z,7.63
2023-04-20T11:49:17.442Z,7.10
2023-04-20T11:54:21.780Z,8.30
2023-04-20T11:59:25.339Z,7.90
2023-04-20T12:04:29.889Z,7.10
2023-04-20T12:09:36.167Z,5.88
2023-04-20T12:14:39.068Z,5.40
2023-04-20T12:19:43.235Z,5.13
2023-04-20T12:24:46.029Z,4.82
2023-04-20T12:29:48.834Z,6.20
2023-04-20T12:34:53.127Z,7.63
2023-04-20T12:39:56.024Z,6.18
2023-04-20T12:44:58.859Z,6.60
2023-04-20T12:50:03.219Z,7.32
2023-04-20T12:55:07.195Z,5.18
2023-04-20T13:00:13.913Z,5.93
2023-04-20T13:05:19.555Z,6.72
2023-04-20T13:10:22.815Z,6.10
2023-04-20T13:15:37.990Z,6.70
2023-04-20T13:20:43.203Z,6.78
2023-04-20T13:25:46.191Z,7.10
2023-04-20T13:30:49.033Z,6.43
2023-04-20T13:35:53.295Z,6.60
2023-04-20T13:40:56.119Z,6.18
2023-04-20T13:45:59.003Z,6.30
2023-04-20T13:51:03.249Z,7.45
2023-04-20T13:56:06.489Z,7.78
2023-04-20T14:01:09.915Z,6.25
2023-04-20T14:06:14.205Z,6.53
2023-04-20T14:11:17.111Z,6.40
2023-04-20T14:16:20.013Z,6.57
2023-04-20T14:21:24.217Z,6.65
2023-04-20T14:26:27.537Z,6.45
2023-04-20T14:31:30.550Z,6.72
2023-04-20T14:36:34.766Z,6.03
2023-04-20T14:41:37.622Z,6.22
2023-04-20T14:46:42.437Z,6.38
2023-04-20T14:51:47.067Z,5.63
2023-04-20T14:56:49.906Z,6.53
2023-04-20T15:02:01.857Z,6.53
2023-04-20T15:07:07.544Z,6.50
2023-04-20T15:12:17.949Z,6.80
2023-04-20T15:17:21.021Z,9.00
2023-04-20T15:22:25.892Z,10.15
2023-04-20T15:27:28.759Z,9.35
2023-04-20T15:32:33.812Z,10.38
2023-04-20T15:37:38.085Z,9.73
2023-04-20T15:42:40.977Z,10.15
2023-04-20T15:47:43.817Z,8.00
2023-04-20T15:52:49.968Z,8.95
2023-04-20T15:57:57.086Z,8.50
2023-04-20T16:03:01.463Z,9.30
2023-04-20T16:08:06.477Z,8.68
2023-04-20T16:13:09.811Z,9.27
2023-04-20T16:18:12.669Z,8.65
2023-04-20T16:23:17.093Z,8.25
2023-04-20T16:28:20.006Z,8.30
2023-04-20T16:33:22.846Z,8.52
2023-04-20T16:38:27.056Z,9.20
2023-04-20T16:43:29.859Z,8.60
2023-04-20T16:48:33.705Z,9.80
2023-04-20T16:53:37.883Z,9.80
2023-04-20T16:58:40.873Z,8.90
2023-04-20T17:03:44.147Z,7.88
2023-04-20T17:08:49.392Z,7.95
2023-04-20T17:13:52.466Z,8.10
2023-04-20T17:18:55.364Z,10.82
2023-04-20T17:23:59.583Z,10.40
2023-04-20T17:29:02.353Z,9.48
2023-04-20T17:34:05.196Z,10.13
2023-04-20T17:39:09.662Z,10.02
2023-04-20T17:44:12.500Z,11.57
2023-04-20T17:49:15.678Z,10.38
2023-04-20T17:54:20.145Z,10.55
2023-04-20T17:59:23.211Z,10.98
2023-04-20T18:04:26.559Z,11.68
2023-04-20T18:09:31.043Z,13.32
2023-04-20T18:14:33.900Z,13.80
2023-04-20T18:19:36.912Z,14.27
2023-04-20T18:24:41.149Z,15.57
2023-04-20T18:29:44.031Z,16.98
2023-04-20T18:34:46.832Z,18.95
2023-04-20T18:39:51.069Z,18.77
2023-04-20T18:44:53.976Z,18.20
2023-04-20T18:49:56.766Z,18.45
2023-04-20T18:55:00.967Z,19.55
2023-04-20T19:00:07.178Z,18.83
2023-04-20T19:05:10.134Z,19.00
2023-04-20T19:10:14.385Z,20.38
2023-04-20T19:15:17.361Z,20.15
2023-04-20T19:20:20.277Z,21.50
2023-04-20T19:25:24.477Z,22.05
2023-04-20T19:30:27.314Z,21.23
2023-04-20T19:35:30.111Z,21.05
2023-04-20T19:40:34.342Z,23.17
2023-04-20T19:45:37.197Z,21.83
2023-04-20T19:50:40.101Z,22.45
2023-04-20T19:55:44.315Z,22.23
2023-04-20T20:00:47.339Z,22.20
2023-04-20T20:05:50.348Z,22.92
2023-04-20T20:10:54.883Z,21.88
2023-04-20T20:15:58.867Z,23.85
2023-04-20T20:21:01.886Z,22.02
2023-04-20T20:26:06.287Z,21.42
2023-04-20T20:31:09.209Z,22.10
2023-04-20T20:36:12.167Z,23.73
2023-04-20T20:41:16.778Z,24.88
2023-04-20T20:46:19.743Z,23.67
2023-04-20T20:51:22.618Z,25.10
2023-04-20T20:56:26.891Z,23.20
2023-04-20T21:01:29.831Z,23.65
2023-04-20T21:06:33.707Z,24.73
2023-04-20T21:11:37.923Z,24.23
2023-04-20T21:16:41.042Z,24.48
2023-04-20T21:21:43.878Z,24.13
2023-04-20T21:26:48.221Z,25.40
2023-04-20T21:31:52.058Z,27.08
2023-04-20T21:36:55.056Z,25.60
2023-04-20T21:42:00.140Z,25.75
2023-04-20T21:47:03.500Z,25.67
2023-04-20T21:52:06.480Z,27.25
2023-04-20T21:57:10.702Z,25.83
2023-04-20T22:02:13.632Z,27.77
2023-04-20T22:07:17.632Z,28.67
2023-04-20T22:12:32.334Z,28.80
2023-04-20T22:17:39.520Z,27.23
2023-04-20T22:22:42.501Z,27.95
2023-04-20T22:27:46.638Z,26.13
2023-04-20T22:32:49.470Z,27.40
2023-04-20T22:37:52.257Z,26.98
2023-04-20T22:42:56.451Z,26.67
2023-04-20T22:47:59.602Z,25.63
2023-04-20T22:53:02.492Z,25.80
2023-04-20T22:58:06.903Z,25.15
2023-04-20T23:03:09.997Z,25.60
2023-04-20T23:08:13.628Z,26.10
2023-04-20T23:13:18.133Z,24.95
2023-04-20T23:18:20.975Z,25.00
2023-04-20T23:23:23.763Z,24.92
2023-04-20T23:28:27.969Z,27.02
2023-04-20T23:33:30.792Z,26.35
2023-04-20T23:38:33.587Z,25.98
2023-04-20T23:43:38.626Z,28.33
2023-04-20T23:48:41.535Z,31.40
2023-04-20T23:53:44.632Z,30.95
2023-04-20T23:58:48.754Z,29.90
